Airfield :
LOGIN :

Register | Disclaimer

   EN    FR    IT 

 










Legend :    VFR   Marginal VFR   IFR   Intensive IFR   Very Intensive IFR
Visi :
Ceiling :
>= 8 km
>= 3000ft
5 to 8 km
1000 to 3000 ft
1500m to 5 km
500 to 1000 ft
800 to 1500m
200 to 500 ft
< 800m
< 200 ft
Symbols :   Thunderstorms  Fog  Heavy snow  Heavy precipitations  Wind > 20 kt
SIGMETs :     Misc.  Thunderstorms  Icing  Turbulence  Mountain Waves  Volcanic Ashes






- Airport Elevation : 1260 ft
- IATA code : LDE


LFBT - Tarbes / Ossun

CURRENT METAR :
  • 231100Z AUTO 25015KT 9999 SCT074 12/01 Q1004 BECMG 24020G30KT

EXPIRED METARs :
  • 231030Z AUTO 24017G29KT CAVOK 12/00 Q1004 NOSIG
  • 231000Z AUTO 24019G29KT 220V280 9999 FEW066 12/M00 Q1004 NOSIG
  • 230930Z AUTO 24018G30KT 9999 FEW064 SCT130 11/M00 Q1004 NOSIG
  • 230900Z AUTO 24016KT CAVOK 11/M00 Q1004 BECMG 24020G30KT
  • 230830Z AUTO 24017KT 9999 FEW066 BKN220 10/00 Q1004 BECMG 24020G30KT

TAF TAF LFBT
Valid from the 23 at 06:00 until the 24 at 06:00 UTC


230500Z 2306/2406 24010KT 9999 BKN070
BECMG 2306/2308 24020G30KT
BECMG 2312/2314 9999 -RA BKN050
BECMG 2314/2316 30010KT
TEMPO 2316/2324 2000 RA OVC010



MET'MAP, your aeronautical weather chart ! - Copyright ORBIFLY December 2007 - Disclaimer

ORBIFLY MET'MAP TEAM :

Programming & Development : Alexandra Zaïnal
Concept & original design : Baudouin d'Aumeries
Assistance for programming : Marc-Olivier Méhu
Technical & hardware support : Manuel Goepfert

Contact : metmap@orbifly.com




SOURCES & CREDITS :

   NOAA